createdAt,value
2018-04-12T00:01:42.029Z,12.40
2018-04-12T00:04:09.782Z,12.40
2018-04-12T00:06:38.964Z,12.40
2018-04-12T00:09:07.505Z,12.40
2018-04-12T00:11:35.924Z,12.40
2018-04-12T00:14:05.130Z,12.40
2018-04-12T00:16:34.317Z,12.30
2018-04-12T00:19:03.517Z,12.40
2018-04-12T00:21:32.747Z,12.40
2018-04-12T00:24:01.181Z,12.30
2018-04-12T00:26:29.601Z,12.30
2018-04-12T00:28:58.699Z,12.30
2018-04-12T00:31:27.755Z,12.30
2018-04-12T00:33:56.949Z,12.30
2018-04-12T00:36:26.289Z,12.30
2018-04-12T00:38:54.726Z,12.30
2018-04-12T00:41:23.369Z,12.30
2018-04-12T00:43:51.798Z,12.30
2018-04-12T00:46:20.998Z,12.20
2018-04-12T00:48:50.204Z,12.20
2018-04-12T00:51:18.651Z,12.10
2018-04-12T00:53:57.996Z,12.10
2018-04-12T00:56:27.826Z,12.00
2018-04-12T00:58:56.575Z,12.10
2018-04-12T01:01:25.008Z,12.10
2018-04-12T01:03:53.445Z,12.10
2018-04-12T01:06:21.867Z,12.10
2018-04-12T01:08:50.292Z,12.00
2018-04-12T01:11:18.722Z,12.00
2018-04-12T01:13:46.933Z,12.00
2018-04-12T01:16:15.377Z,12.00
2018-04-12T01:18:43.571Z,12.00
2018-04-12T01:21:12.007Z,12.00
2018-04-12T01:23:41.213Z,12.00
2018-04-12T01:26:09.646Z,12.00
2018-04-12T01:28:38.104Z,12.10
2018-04-12T01:31:06.523Z,12.10
2018-04-12T01:33:34.959Z,12.10
2018-04-12T01:36:03.397Z,12.10
2018-04-12T01:38:32.601Z,12.10
2018-04-12T01:41:01.055Z,12.00
2018-04-12T01:43:29.476Z,12.10
2018-04-12T01:45:57.927Z,12.00
2018-04-12T01:48:27.115Z,12.00
2018-04-12T01:50:56.301Z,12.00
2018-04-12T01:53:24.743Z,11.90
2018-04-12T01:55:53.170Z,11.90
2018-04-12T01:58:22.371Z,11.90
2018-04-12T02:00:51.237Z,11.90
2018-04-12T02:03:19.363Z,11.90
2018-04-12T02:05:47.789Z,11.90
2018-04-12T02:08:16.237Z,11.90
2018-04-12T02:10:44.450Z,11.90
2018-04-12T02:13:12.649Z,11.80
2018-04-12T02:15:40.850Z,11.80
2018-04-12T02:18:09.298Z,11.80
2018-04-12T02:20:37.912Z,11.80
2018-04-12T02:23:06.026Z,11.80
2018-04-12T02:25:34.473Z,11.70
2018-04-12T02:28:02.920Z,11.70
2018-04-12T02:30:31.361Z,11.70
2018-04-12T02:32:59.773Z,11.70
2018-04-12T02:35:28.268Z,11.70
2018-04-12T02:37:56.869Z,11.70
2018-04-12T02:40:25.309Z,11.70
2018-04-12T02:42:54.511Z,11.70
2018-04-12T02:45:22.941Z,11.70
2018-04-12T02:47:51.391Z,11.70
2018-04-12T02:50:19.825Z,11.70
2018-04-12T02:52:49.027Z,11.60
2018-04-12T02:55:18.210Z,11.60
2018-04-12T02:57:46.640Z,11.50
2018-04-12T03:00:15.067Z,11.60
2018-04-12T03:02:43.520Z,11.50
2018-04-12T03:05:11.958Z,11.50
2018-04-12T03:07:40.389Z,11.60
2018-04-12T03:10:08.837Z,11.60
2018-04-12T03:12:37.265Z,11.50
2018-04-12T03:15:05.702Z,11.60
2018-04-12T03:17:34.130Z,11.50
2018-04-12T03:20:03.342Z,11.60
2018-04-12T03:22:32.566Z,11.60
2018-04-12T03:25:01.003Z,11.50
2018-04-12T03:27:30.197Z,11.50
2018-04-12T03:29:59.358Z,11.50
2018-04-12T03:32:28.558Z,11.50
2018-04-12T03:34:57.186Z,11.50
2018-04-12T03:37:26.392Z,11.40
2018-04-12T03:39:54.818Z,11.30
2018-04-12T03:42:23.244Z,11.30
2018-04-12T03:44:52.441Z,11.20
2018-04-12T03:47:21.640Z,11.20
2018-04-12T03:49:50.825Z,11.20
2018-04-12T03:52:20.037Z,11.30
2018-04-12T03:54:48.469Z,11.20
2018-04-12T03:57:16.910Z,11.20
2018-04-12T03:59:45.106Z,11.30
2018-04-12T04:02:13.562Z,11.20
2018-04-12T04:04:41.983Z,11.20
2018-04-12T04:07:10.396Z,11.30
2018-04-12T04:09:39.601Z,11.30
2018-04-12T04:12:08.041Z,11.20
2018-04-12T04:14:41.768Z,11.30
2018-04-12T04:17:22.349Z,11.20
2018-04-12T04:20:01.977Z,11.20
2018-04-12T04:22:31.175Z,11.20
2018-04-12T04:25:00.369Z,11.20
2018-04-12T04:27:30.272Z,11.20
2018-04-12T04:30:00.368Z,11.20
2018-04-12T04:32:29.679Z,11.10
2018-04-12T04:34:58.150Z,11.20
2018-04-12T04:37:26.578Z,11.20
2018-04-12T04:39:55.077Z,11.20
2018-04-12T04:42:23.417Z,11.20
2018-04-12T04:44:52.376Z,11.10
2018-04-12T04:47:20.588Z,11.10
2018-04-12T04:49:49.018Z,11.10
2018-04-12T04:52:18.234Z,11.10
2018-04-12T04:54:46.665Z,11.10
2018-04-12T04:57:14.900Z,11.10
2018-04-12T04:59:44.090Z,11.20
2018-04-12T05:02:12.289Z,11.10
2018-04-12T05:04:40.735Z,11.10
2018-04-12T05:07:09.170Z,11.20
2018-04-12T05:09:37.592Z,11.10
2018-04-12T05:12:06.025Z,11.10
2018-04-12T05:14:34.481Z,11.20
2018-04-12T05:17:03.667Z,11.20
2018-04-12T05:19:32.866Z,11.20
2018-04-12T05:22:01.833Z,11.20
2018-04-12T05:24:31.126Z,11.20
2018-04-12T05:27:00.405Z,11.20
2018-04-12T05:29:28.618Z,11.20
2018-04-12T05:31:58.528Z,11.10
2018-04-12T05:34:26.732Z,11.10
2018-04-12T05:36:55.168Z,11.10
2018-04-12T05:39:23.613Z,11.10
2018-04-12T05:41:52.050Z,11.20
2018-04-12T05:44:21.257Z,11.10
2018-04-12T05:46:50.457Z,11.10
2018-04-12T05:49:18.914Z,11.10
2018-04-12T05:51:47.871Z,11.10
2018-04-12T05:54:16.297Z,11.10
2018-04-12T05:56:45.501Z,11.20
2018-04-12T05:59:13.924Z,11.10
2018-04-12T06:01:42.949Z,11.20
2018-04-12T06:04:12.136Z,11.30
2018-04-12T06:06:40.547Z,11.20
2018-04-12T06:09:08.986Z,11.30
2018-04-12T06:11:37.408Z,11.40
2018-04-12T06:14:05.848Z,11.40
2018-04-12T06:16:34.276Z,11.40
2018-04-12T06:19:02.713Z,11.60
2018-04-12T06:21:31.123Z,11.60
2018-04-12T06:24:00.060Z,11.70
2018-04-12T06:26:28.483Z,11.80
2018-04-12T06:28:57.683Z,11.80
2018-04-12T06:31:26.105Z,11.80
2018-04-12T06:33:54.532Z,11.80
2018-04-12T06:36:23.161Z,11.80
2018-04-12T06:38:51.597Z,11.80
2018-04-12T06:41:20.797Z,12.10
2018-04-12T06:43:49.226Z,12.10
2018-04-12T06:46:17.670Z,12.20
2018-04-12T06:48:46.104Z,12.30
2018-04-12T06:51:14.548Z,12.30
2018-04-12T06:53:42.977Z,12.50
2018-04-12T06:56:12.190Z,12.60
2018-04-12T06:58:40.615Z,12.60
2018-04-12T07:01:08.709Z,12.70
2018-04-12T07:03:37.146Z,12.80
2018-04-12T07:06:05.594Z,12.90
2018-04-12T07:08:34.039Z,12.90
2018-04-12T07:11:02.456Z,13.00
2018-04-12T07:13:31.456Z,13.00
2018-04-12T07:16:00.237Z,13.10
2018-04-12T07:18:29.321Z,13.10
2018-04-12T07:20:59.541Z,13.30
2018-04-12T07:23:27.987Z,13.30
2018-04-12T07:25:56.400Z,13.40
2018-04-12T07:28:24.828Z,13.40
2018-04-12T07:30:53.264Z,13.50
2018-04-12T07:33:21.697Z,13.70
2018-04-12T07:35:50.130Z,13.80
2018-04-12T07:38:18.554Z,13.90
2018-04-12T07:40:46.751Z,14.00
2018-04-12T07:43:15.957Z,14.00
2018-04-12T07:45:45.172Z,14.10
2018-04-12T07:48:13.365Z,14.10
2018-04-12T07:50:41.790Z,14.30
2018-04-12T07:53:11.004Z,14.40
2018-04-12T07:55:39.440Z,14.50
2018-04-12T07:58:07.663Z,14.60
2018-04-12T08:00:36.097Z,14.70
2018-04-12T08:03:04.512Z,14.60
2018-04-12T08:05:33.697Z,14.80
2018-04-12T08:08:02.937Z,14.80
2018-04-12T08:10:31.510Z,14.80
2018-04-12T08:13:00.641Z,14.80
2018-04-12T08:15:29.393Z,14.90
2018-04-12T08:17:57.847Z,14.90
2018-04-12T08:20:26.800Z,15.00
2018-04-12T08:22:55.219Z,15.00
2018-04-12T08:25:24.421Z,15.00
2018-04-12T08:27:52.840Z,15.00
2018-04-12T08:30:21.278Z,15.00
2018-04-12T08:32:49.714Z,15.00
2018-04-12T08:35:18.173Z,14.90
2018-04-12T08:37:46.606Z,14.80
2018-04-12T08:40:15.024Z,14.80
2018-04-12T08:42:44.225Z,15.00
2018-04-12T08:45:12.413Z,15.00
2018-04-12T08:47:40.836Z,15.10
2018-04-12T08:50:09.261Z,15.10
2018-04-12T08:52:37.695Z,15.20
2018-04-12T08:55:06.455Z,15.30
2018-04-12T08:57:34.565Z,15.40
2018-04-12T09:00:03.003Z,15.40
2018-04-12T09:02:31.457Z,15.40
2018-04-12T09:04:59.889Z,15.60
2018-04-12T09:07:28.316Z,15.60
2018-04-12T09:09:56.768Z,15.80
2018-04-12T09:12:25.951Z,15.90
2018-04-12T09:14:54.400Z,15.90
2018-04-12T09:17:22.825Z,16.10
2018-04-12T09:19:52.024Z,16.20
2018-04-12T09:22:21.232Z,16.20
2018-04-12T09:24:49.656Z,16.20
2018-04-12T09:27:18.115Z,16.20
2018-04-12T09:29:46.546Z,16.30
2018-04-12T09:32:17.414Z,16.30
2018-04-12T09:34:45.851Z,16.30
2018-04-12T09:37:14.288Z,16.40
2018-04-12T09:39:42.749Z,16.40
2018-04-12T09:42:10.949Z,16.50
2018-04-12T09:44:39.367Z,16.40
2018-04-12T09:47:08.304Z,16.50
2018-04-12T09:49:36.763Z,16.70
2018-04-12T09:52:05.195Z,16.40
2018-04-12T09:54:33.633Z,16.50
2018-04-12T09:57:02.068Z,16.80
2018-04-12T09:59:30.499Z,16.70
2018-04-12T10:02:01.616Z,16.50
2018-04-12T10:04:29.816Z,16.50
2018-04-12T10:07:09.937Z,16.50
2018-04-12T10:09:39.167Z,16.40
2018-04-12T10:12:07.606Z,16.30
2018-04-12T10:14:36.799Z,16.20
2018-04-12T10:17:06.005Z,16.30
2018-04-12T10:19:34.866Z,16.20
2018-04-12T10:22:03.300Z,16.20
2018-04-12T10:24:31.728Z,16.50
2018-04-12T10:27:00.156Z,16.60
2018-04-12T10:29:28.602Z,16.50
2018-04-12T10:31:57.569Z,16.50
2018-04-12T10:34:25.998Z,16.50
2018-04-12T10:36:54.432Z,16.60
2018-04-12T10:39:22.892Z,16.70
2018-04-12T10:41:51.495Z,16.70
2018-04-12T10:44:19.707Z,16.70
2018-04-12T10:46:49.982Z,16.60
2018-04-12T10:49:19.297Z,16.60
2018-04-12T10:51:49.265Z,16.60
2018-04-12T10:54:17.455Z,16.60
2018-04-12T10:56:45.669Z,16.60
2018-04-12T10:59:14.627Z,16.70
2018-04-12T11:01:42.830Z,16.60
2018-04-12T11:04:11.802Z,16.80
2018-04-12T11:06:40.023Z,16.80
2018-04-12T11:09:08.480Z,16.70
2018-04-12T11:11:37.673Z,16.50
2018-04-12T11:14:06.870Z,16.60
2018-04-12T11:16:36.078Z,16.60
2018-04-12T11:19:04.168Z,16.60
2018-04-12T11:21:32.374Z,16.60
2018-04-12T11:24:00.805Z,16.60
2018-04-12T11:26:29.233Z,16.50
2018-04-12T11:28:57.665Z,16.50
2018-04-12T11:31:26.110Z,16.60
2018-04-12T11:33:54.718Z,16.70
2018-04-12T11:36:22.821Z,16.70
2018-04-12T11:38:51.285Z,16.70
2018-04-12T11:41:19.708Z,16.70
2018-04-12T11:43:48.129Z,16.70
2018-04-12T11:46:16.573Z,16.80
2018-04-12T11:48:45.021Z,17.00
2018-04-12T11:51:13.466Z,17.00
2018-04-12T11:53:41.904Z,17.00
2018-04-12T11:56:10.357Z,17.00
2018-04-12T11:58:39.558Z,17.00
2018-04-12T12:01:07.976Z,17.00
2018-04-12T12:03:37.193Z,16.90
2018-04-12T12:06:05.625Z,16.90
2018-04-12T12:08:34.063Z,16.90
2018-04-12T12:11:02.526Z,16.90
2018-04-12T12:13:30.961Z,16.80
2018-04-12T12:15:59.400Z,16.90
2018-04-12T12:18:27.845Z,16.90
2018-04-12T12:20:57.057Z,17.00
2018-04-12T12:23:26.245Z,17.00
2018-04-12T12:25:55.460Z,17.00
2018-04-12T12:28:23.874Z,17.00
2018-04-12T12:30:52.292Z,17.10
2018-04-12T12:33:21.497Z,17.10
2018-04-12T12:35:50.700Z,17.10
2018-04-12T12:38:19.920Z,17.10
2018-04-12T12:40:48.351Z,17.00
2018-04-12T12:43:16.779Z,17.10
2018-04-12T12:45:45.204Z,17.10
2018-04-12T12:48:13.632Z,17.10
2018-04-12T12:50:42.072Z,17.00
2018-04-12T12:53:12.498Z,17.00
2018-04-12T12:55:41.696Z,16.90
2018-04-12T12:58:10.905Z,16.80
2018-04-12T13:00:40.119Z,16.90
2018-04-12T13:03:08.780Z,16.90
2018-04-12T13:05:38.342Z,17.00
2018-04-12T13:08:06.780Z,16.90
2018-04-12T13:10:35.204Z,16.90
2018-04-12T13:13:03.632Z,16.90
2018-04-12T13:15:32.860Z,16.90
2018-04-12T13:18:01.303Z,16.90
2018-04-12T13:20:29.745Z,16.90
2018-04-12T13:22:58.192Z,16.80
2018-04-12T13:25:26.850Z,16.70
2018-04-12T13:27:55.049Z,16.80
2018-04-12T13:30:23.161Z,16.90
2018-04-12T13:32:51.585Z,17.00
2018-04-12T13:35:20.025Z,17.00
2018-04-12T13:37:48.639Z,16.90
2018-04-12T13:40:17.075Z,16.90
2018-04-12T13:42:45.270Z,16.90
2018-04-12T13:45:14.478Z,16.80
2018-04-12T13:47:43.670Z,16.90
2018-04-12T13:50:12.872Z,16.90
2018-04-12T13:52:48.697Z,16.90
2018-04-12T13:55:17.555Z,16.90
2018-04-12T13:57:46.108Z,16.80
2018-04-12T14:00:14.561Z,16.80
2018-04-12T14:02:43.740Z,16.90
2018-04-12T14:05:12.155Z,16.80
2018-04-12T14:07:40.601Z,16.80
2018-04-12T14:10:09.801Z,16.90
2018-04-12T14:12:38.242Z,16.80
2018-04-12T14:15:06.670Z,16.90
2018-04-12T14:17:35.864Z,16.80
2018-04-12T14:20:05.052Z,16.80
2018-04-12T14:22:33.501Z,16.80
2018-04-12T14:25:01.931Z,16.70
2018-04-12T14:27:31.126Z,16.80
2018-04-12T14:29:59.565Z,16.80
2018-04-12T14:32:27.983Z,16.80
2018-04-12T14:34:57.189Z,16.90
2018-04-12T14:37:25.612Z,16.90
2018-04-12T14:39:54.048Z,16.90
2018-04-12T14:42:22.479Z,16.90
2018-04-12T14:44:50.917Z,16.90
2018-04-12T14:47:19.387Z,16.90
2018-04-12T14:49:48.611Z,17.00
2018-04-12T14:52:17.036Z,17.00
2018-04-12T14:54:46.237Z,17.00
2018-04-12T14:57:15.436Z,17.00
2018-04-12T14:59:44.642Z,17.00
2018-04-12T15:02:13.072Z,17.00
2018-04-12T15:04:41.492Z,17.00
2018-04-12T15:07:10.457Z,17.10
2018-04-12T15:09:38.876Z,17.10
2018-04-12T15:12:07.327Z,16.80
2018-04-12T15:14:36.521Z,16.70
2018-04-12T15:17:05.737Z,16.90
2018-04-12T15:19:34.915Z,17.00
2018-04-12T15:22:04.112Z,17.00
2018-04-12T15:24:33.320Z,16.90
2018-04-12T15:27:02.507Z,16.90
2018-04-12T15:29:31.482Z,16.90
2018-04-12T15:32:00.010Z,16.90
2018-04-12T15:34:28.357Z,16.80
2018-04-12T15:36:57.539Z,16.70
2018-04-12T15:39:25.985Z,16.60
2018-04-12T15:41:54.425Z,16.70
2018-04-12T15:44:23.612Z,16.60
2018-04-12T15:46:52.817Z,16.50
2018-04-12T15:49:22.015Z,16.40
2018-04-12T15:51:51.197Z,16.40
2018-04-12T15:54:21.331Z,16.30
2018-04-12T15:56:50.457Z,16.30
2018-04-12T15:59:18.674Z,16.30
2018-04-12T16:01:46.897Z,16.30
2018-04-12T16:04:15.322Z,16.20
2018-04-12T16:06:43.750Z,16.20
2018-04-12T16:09:12.188Z,16.20
2018-04-12T16:11:41.388Z,16.20
2018-04-12T16:14:10.620Z,16.20
2018-04-12T16:16:39.061Z,16.20
2018-04-12T16:19:08.039Z,16.10
2018-04-12T16:21:36.232Z,16.10
2018-04-12T16:24:05.459Z,16.10
2018-04-12T16:26:33.874Z,16.10
2018-04-12T16:29:02.288Z,16.10
2018-04-12T16:31:31.487Z,16.00
2018-04-12T16:34:00.726Z,16.00
2018-04-12T16:36:29.318Z,15.90
2018-04-12T16:38:57.735Z,15.90
2018-04-12T16:41:26.710Z,15.90
2018-04-12T16:43:55.129Z,15.80
2018-04-12T16:46:23.565Z,15.80
2018-04-12T16:48:51.980Z,15.70
2018-04-12T16:51:20.925Z,15.70
2018-04-12T16:53:49.950Z,15.60
2018-04-12T16:56:19.145Z,15.60
2018-04-12T16:58:49.377Z,15.60
2018-04-12T17:01:19.561Z,15.50
2018-04-12T17:03:49.305Z,15.50
2018-04-12T17:06:18.280Z,15.50
2018-04-12T17:08:47.467Z,15.60
2018-04-12T17:11:15.909Z,15.50
2018-04-12T17:13:44.095Z,15.50
2018-04-12T17:16:12.301Z,15.60
2018-04-12T17:18:40.760Z,15.50
2018-04-12T17:21:09.190Z,15.50
2018-04-12T17:23:37.630Z,15.60
2018-04-12T17:26:06.101Z,15.50
2018-04-12T17:28:34.536Z,15.50
2018-04-12T17:31:02.975Z,14.90
2018-04-12T17:33:32.165Z,15.40
2018-04-12T17:36:00.601Z,15.40
2018-04-12T17:38:28.798Z,15.30
2018-04-12T17:40:57.241Z,15.30
2018-04-12T17:43:25.669Z,15.30
2018-04-12T17:45:54.118Z,15.10
2018-04-12T17:48:22.539Z,15.10
2018-04-12T17:50:51.739Z,15.00
2018-04-12T17:53:20.944Z,15.00
2018-04-12T17:55:50.141Z,14.90
2018-04-12T17:58:19.790Z,14.90
2018-04-12T18:00:49.017Z,14.90
2018-04-12T18:03:18.386Z,14.90
2018-04-12T18:05:47.041Z,14.90
2018-04-12T18:08:15.500Z,14.80
2018-04-12T18:10:44.635Z,14.70
2018-04-12T18:13:13.068Z,14.70
2018-04-12T18:15:41.516Z,14.70
2018-04-12T18:18:09.945Z,14.60
2018-04-12T18:20:39.149Z,14.30
2018-04-12T18:23:07.590Z,14.30
2018-04-12T18:25:36.033Z,14.20
2018-04-12T18:28:04.461Z,14.10
2018-04-12T18:30:33.667Z,14.10
2018-04-12T18:33:02.867Z,13.90
2018-04-12T18:35:32.076Z,13.70
2018-04-12T18:38:00.502Z,13.60
2018-04-12T18:40:28.930Z,13.50
2018-04-12T18:42:57.373Z,13.50
2018-04-12T18:45:25.820Z,13.50
2018-04-12T18:47:54.270Z,13.60
2018-04-12T18:50:22.704Z,13.50
2018-04-12T18:52:51.143Z,13.60
2018-04-12T18:55:20.501Z,13.30
2018-04-12T18:57:50.283Z,13.20
2018-04-12T19:00:18.727Z,13.10
2018-04-12T19:02:47.222Z,13.20
2018-04-12T19:05:15.680Z,13.20
2018-04-12T19:07:44.156Z,13.10
2018-04-12T19:10:12.618Z,13.10
2018-04-12T19:12:41.847Z,12.90
2018-04-12T19:15:10.338Z,12.90
2018-04-12T19:17:38.810Z,12.90
2018-04-12T19:20:07.255Z,12.80
2018-04-12T19:22:36.471Z,12.80
2018-04-12T19:25:04.905Z,12.80
2018-04-12T19:27:33.419Z,12.80
2018-04-12T19:30:02.013Z,12.80
2018-04-12T19:32:30.473Z,12.90
2018-04-12T19:34:59.671Z,13.00
2018-04-12T19:37:28.887Z,12.90
2018-04-12T19:39:57.341Z,12.90
2018-04-12T19:42:26.606Z,12.70
2018-04-12T19:44:54.963Z,12.70
2018-04-12T19:47:23.397Z,12.60
2018-04-12T19:49:52.612Z,12.30
2018-04-12T19:52:21.050Z,12.30
2018-04-12T19:54:50.431Z,12.30
2018-04-12T19:57:19.399Z,12.20
2018-04-12T19:59:48.252Z,12.10
2018-04-12T20:02:16.886Z,12.10
2018-04-12T20:04:45.327Z,12.20
2018-04-12T20:07:13.768Z,12.10
2018-04-12T20:09:42.193Z,12.10
2018-04-12T20:12:10.649Z,12.50
2018-04-12T20:14:39.855Z,12.40
2018-04-12T20:17:09.067Z,12.80
2018-04-12T20:19:37.499Z,12.80
2018-04-12T20:22:05.935Z,12.80
2018-04-12T20:24:34.392Z,12.70
2018-04-12T20:27:02.821Z,12.60
2018-04-12T20:29:31.278Z,12.60
2018-04-12T20:31:59.717Z,12.50
2018-04-12T20:34:28.910Z,12.40
2018-04-12T20:36:57.565Z,12.30
2018-04-12T20:39:26.013Z,12.30
2018-04-12T20:41:54.458Z,12.20
2018-04-12T20:44:22.913Z,12.10
2018-04-12T20:46:52.123Z,11.90
2018-04-12T20:49:21.325Z,11.70
2018-04-12T20:51:50.549Z,11.50
2018-04-12T20:54:18.971Z,11.50
2018-04-12T20:56:47.407Z,11.40
2018-04-12T20:59:15.911Z,11.50
2018-04-12T21:01:44.338Z,11.50
2018-04-12T21:04:13.549Z,11.20
2018-04-12T21:06:42.475Z,11.20
2018-04-12T21:09:10.952Z,11.10
2018-04-12T21:11:39.377Z,11.10
2018-04-12T21:14:08.578Z,11.10
2018-04-12T21:16:37.783Z,11.10
2018-04-12T21:19:06.243Z,11.00
2018-04-12T21:21:35.502Z,11.00
2018-04-12T21:24:03.931Z,11.00
2018-04-12T21:26:33.118Z,10.90
2018-04-12T21:29:02.337Z,10.90
2018-04-12T21:31:30.781Z,10.90
2018-04-12T21:33:59.218Z,10.90
2018-04-12T21:36:27.664Z,10.80
2018-04-12T21:38:56.872Z,10.80
2018-04-12T21:41:25.301Z,10.80
2018-04-12T21:43:53.753Z,10.80
2018-04-12T21:46:22.189Z,10.80
2018-04-12T21:48:51.403Z,10.70
2018-04-12T21:51:19.849Z,10.70
2018-04-12T21:53:48.293Z,10.80
2018-04-12T21:56:16.737Z,10.80
2018-04-12T21:58:45.195Z,10.70
2018-04-12T22:01:14.450Z,10.80
2018-04-12T22:03:59.554Z,10.80
2018-04-12T22:06:28.014Z,10.80
2018-04-12T22:08:56.432Z,10.80
2018-04-12T22:11:25.702Z,10.70
2018-04-12T22:13:54.136Z,10.70
2018-04-12T22:16:22.350Z,10.70
2018-04-12T22:18:50.778Z,10.70
2018-04-12T22:21:19.201Z,10.70
2018-04-12T22:23:47.642Z,10.70
2018-04-12T22:26:15.734Z,10.60
2018-04-12T22:28:44.164Z,10.60
2018-04-12T22:31:13.447Z,10.50
2018-04-12T22:33:41.892Z,10.50
2018-04-12T22:36:10.317Z,10.50
2018-04-12T22:38:39.531Z,10.50
2018-04-12T22:41:07.982Z,10.50
2018-04-12T22:43:36.446Z,10.50
2018-04-12T22:46:04.897Z,10.40
2018-04-12T22:48:33.333Z,10.30
2018-04-12T22:51:02.531Z,10.30
2018-04-12T22:53:31.727Z,10.20
2018-04-12T22:56:01.160Z,10.20
2018-04-12T22:58:29.589Z,10.20
2018-04-12T23:00:58.030Z,10.10
2018-04-12T23:03:26.466Z,10.30
2018-04-12T23:05:55.698Z,10.30
2018-04-12T23:08:24.134Z,10.20
2018-04-12T23:10:53.333Z,10.10
2018-04-12T23:13:22.229Z,10.10
2018-04-12T23:15:50.671Z,10.10
2018-04-12T23:18:19.105Z,10.00
2018-04-12T23:20:47.536Z,10.10
2018-04-12T23:23:15.966Z,10.00
2018-04-12T23:25:44.428Z,10.10
2018-04-12T23:28:13.049Z,10.00
2018-04-12T23:30:41.475Z,10.10
2018-04-12T23:33:10.689Z,9.90
2018-04-12T23:35:39.124Z,9.90
2018-04-12T23:38:07.563Z,9.80
2018-04-12T23:40:36.005Z,9.80
2018-04-12T23:43:05.218Z,9.80
2018-04-12T23:45:34.892Z,9.80
2018-04-12T23:48:03.932Z,9.80
2018-04-12T23:50:32.402Z,9.70
2018-04-12T23:53:00.854Z,9.70
2018-04-12T23:55:29.286Z,9.70
2018-04-12T23:57:57.539Z,9.70
